Overview Statistics Trail Chart Weather Telemetry Raw packets
 

This is the latest recevied weather packets stored in our database for station/object KG5CK-1. If no packets are shown the sender has not sent any weather packets the latest 10 day(s).

<< 546 547 548 549 550 551 552 >>
Time Temp. Humidity Pressure Rain* Wind** Luminosity Snow
1787871062 37.78° C 40% 1009.2 hPa 0 mm 0.89 m/s, 55° - -
1787871003 37.78° C 40% 1009.1 hPa 0 mm 1.79 m/s, 62° - -
1787870943 37.78° C 40% 1009.1 hPa 0 mm 1.79 m/s, 62° - -
1787870883 37.78° C 40% 1009.1 hPa 0 mm 1.79 m/s, 62° - -
1787870823 37.78° C 40% 1009.1 hPa 0 mm 1.79 m/s, 62° - -
1787870763 37.78° C 40% 1009.1 hPa 0 mm 1.79 m/s, 62° - -
1787870702 37.22° C 40% 1009.2 hPa 0 mm 0.89 m/s, 63° - -
1787870642 37.22° C 40% 1009.2 hPa 0 mm 0.89 m/s, 63° - -
1787870583 37.22° C 40% 1009.2 hPa 0 mm 0.89 m/s, 63° - -
1787870522 37.22° C 40% 1009.2 hPa 0 mm 0.89 m/s, 63° - -
1787870462 37.22° C 40% 1009.2 hPa 0 mm 0.89 m/s, 63° - -
1787870403 37.22° C 41% 1009.2 hPa 0 mm 1.34 m/s, 60° - -
1787870342 37.22° C 41% 1009.2 hPa 0 mm 1.34 m/s, 60° - -
1787870283 37.22° C 41% 1009.2 hPa 0 mm 1.34 m/s, 60° - -
1787870222 37.22° C 41% 1009.2 hPa 0 mm 1.34 m/s, 60° - -
1787870163 37.22° C 41% 1009.2 hPa 0 mm 1.34 m/s, 60° - -
1787870103 37.78° C 40% 1009.2 hPa 0 mm 0.45 m/s, 82° - -
1787870043 37.78° C 40% 1009.2 hPa 0 mm 0.45 m/s, 82° - -
1787869983 37.78° C 40% 1009.2 hPa 0 mm 0.45 m/s, 82° - -
1787869923 37.78° C 40% 1009.2 hPa 0 mm 0.45 m/s, 82° - -
1787869863 37.78° C 40% 1009.2 hPa 0 mm 0.45 m/s, 82° - -
1787869803 38.33° C 40% 1009.2 hPa 0 mm 1.34 m/s, 71° - -
1787869742 38.33° C 40% 1009.2 hPa 0 mm 1.34 m/s, 71° - -
1787869683 38.33° C 40% 1009.2 hPa 0 mm 1.34 m/s, 71° - -
1787869622 38.33° C 40% 1009.2 hPa 0 mm 1.34 m/s, 71° - -

* Rain latest hour (hover to see other rain measurements)
** Current wind speed in m/s (hover to see current wind gust speed)